createdAt,value
2019-05-22T00:01:41.086Z,19.05
2019-05-22T00:04:18.385Z,19.11
2019-05-22T00:06:50.562Z,18.31
2019-05-22T00:09:26.053Z,19.42
2019-05-22T00:11:56.523Z,19.77
2019-05-22T00:14:28.412Z,19.43
2019-05-22T00:16:59.440Z,18.67
2019-05-22T00:19:30.671Z,18.78
2019-05-22T00:22:11.324Z,18.87
2019-05-22T00:24:44.223Z,18.98
2019-05-22T00:27:15.139Z,19.08
2019-05-22T00:29:48.228Z,18.80
2019-05-22T00:32:17.895Z,18.26
2019-05-22T00:34:48.512Z,18.70
2019-05-22T00:37:19.547Z,18.79
2019-05-22T00:39:49.259Z,19.39
2019-05-22T00:42:20.705Z,18.74
2019-05-22T00:44:51.711Z,18.60
2019-05-22T00:47:22.735Z,18.52
2019-05-22T00:49:55.285Z,19.16
2019-05-22T00:52:43.495Z,18.85
2019-05-22T00:55:32.111Z,19.29
2019-05-22T00:58:26.920Z,18.76
2019-05-22T01:01:01.904Z,19.40
2019-05-22T01:03:33.686Z,19.24
2019-05-22T01:06:04.944Z,19.18
2019-05-22T01:08:37.584Z,18.56
2019-05-22T01:11:07.461Z,18.36
2019-05-22T01:13:37.942Z,18.99
2019-05-22T01:16:09.098Z,19.02
2019-05-22T01:18:38.998Z,18.33
2019-05-22T01:21:10.416Z,19.10
2019-05-22T01:23:40.259Z,19.58
2019-05-22T01:26:13.605Z,19.71
2019-05-22T01:28:46.199Z,19.20
2019-05-22T01:31:33.294Z,19.19
2019-05-22T01:34:08.185Z,18.47
2019-05-22T01:36:44.531Z,18.72
2019-05-22T01:39:39.483Z,18.97
2019-05-22T01:42:12.699Z,18.70
2019-05-22T01:44:57.968Z,18.73
2019-05-22T01:47:20.879Z,18.15
2019-05-22T01:49:54.099Z,18.38
2019-05-22T01:52:23.767Z,18.20
2019-05-22T01:54:55.040Z,18.44
2019-05-22T01:57:26.495Z,17.97
2019-05-22T01:59:57.046Z,18.52
2019-05-22T02:02:26.870Z,18.07
2019-05-22T02:04:58.254Z,18.57
2019-05-22T02:07:29.016Z,18.62
2019-05-22T02:09:59.483Z,18.17
2019-05-22T02:12:50.955Z,18.65
2019-05-22T02:15:21.956Z,18.20
2019-05-22T02:17:52.704Z,18.02
2019-05-22T02:20:22.548Z,18.83
2019-05-22T02:22:52.265Z,19.08
2019-05-22T02:25:21.542Z,19.33
2019-05-22T02:27:51.678Z,19.13
2019-05-22T02:30:23.199Z,19.42
2019-05-22T02:32:53.139Z,19.08
2019-05-22T02:35:23.788Z,19.23
2019-05-22T02:37:53.272Z,18.97
2019-05-22T02:40:27.250Z,18.73
2019-05-22T02:42:58.433Z,18.69
2019-05-22T02:45:29.068Z,18.79
2019-05-22T02:48:00.634Z,18.41
2019-05-22T02:50:30.377Z,18.21
2019-05-22T02:53:01.613Z,18.45
2019-05-22T02:55:30.964Z,17.91
2019-05-22T02:58:00.511Z,18.63
2019-05-22T03:00:34.389Z,18.75
2019-05-22T03:03:06.165Z,18.31
2019-05-22T03:05:35.636Z,18.60
2019-05-22T03:08:05.205Z,17.99
2019-05-22T03:10:34.787Z,18.51
2019-05-22T03:13:04.121Z,18.32
2019-05-22T03:15:33.863Z,18.72
2019-05-22T03:18:05.299Z,18.53
2019-05-22T03:20:36.397Z,18.73
2019-05-22T03:23:14.457Z,19.24
2019-05-22T03:25:44.790Z,18.76
2019-05-22T03:28:14.966Z,18.44
2019-05-22T03:30:46.572Z,19.09
2019-05-22T03:33:16.263Z,18.78
2019-05-22T03:35:48.537Z,18.24
2019-05-22T03:38:20.342Z,18.75
2019-05-22T03:40:53.155Z,18.46
2019-05-22T03:43:25.249Z,18.57
2019-05-22T03:45:57.199Z,18.34
2019-05-22T03:48:28.333Z,18.73
2019-05-22T03:51:07.789Z,18.81
2019-05-22T03:53:37.361Z,18.35
2019-05-22T03:56:06.645Z,18.52
2019-05-22T03:58:36.166Z,18.06
2019-05-22T04:01:07.205Z,18.50
2019-05-22T04:03:36.599Z,17.93
2019-05-22T04:06:06.980Z,18.00
2019-05-22T04:08:37.330Z,18.93
2019-05-22T04:11:08.398Z,18.37
2019-05-22T04:13:38.666Z,18.19
2019-05-22T04:16:10.741Z,17.74
2019-05-22T04:18:40.756Z,18.77
2019-05-22T04:21:10.122Z,18.62
2019-05-22T04:23:39.896Z,18.45
2019-05-22T04:26:11.973Z,18.11
2019-05-22T04:28:49.972Z,18.62
2019-05-22T04:31:23.211Z,18.56
2019-05-22T04:33:53.092Z,18.51
2019-05-22T04:36:24.204Z,18.53
2019-05-22T04:38:53.596Z,18.74
2019-05-22T04:41:22.911Z,18.73
2019-05-22T04:43:52.360Z,18.47
2019-05-22T04:46:23.356Z,18.43
2019-05-22T04:48:54.007Z,18.47
2019-05-22T04:51:31.157Z,18.74
2019-05-22T04:54:00.641Z,18.45
2019-05-22T04:56:30.604Z,18.39
2019-05-22T04:59:01.836Z,19.08
2019-05-22T05:01:31.226Z,18.76
2019-05-22T05:04:01.525Z,18.79
2019-05-22T05:06:33.504Z,19.25
2019-05-22T05:09:03.937Z,19.21
2019-05-22T05:11:34.043Z,18.79
2019-05-22T05:14:03.400Z,19.22
2019-05-22T05:16:32.835Z,18.98
2019-05-22T05:19:02.221Z,19.15
2019-05-22T05:21:31.529Z,18.73
2019-05-22T05:24:00.819Z,18.31
2019-05-22T05:26:31.505Z,19.12
2019-05-22T05:29:01.319Z,18.62
2019-05-22T05:31:31.136Z,19.10
2019-05-22T05:34:32.322Z,18.82
2019-05-22T05:37:05.164Z,18.79
2019-05-22T05:40:39.311Z,19.50
2019-05-22T05:43:10.637Z,18.98
2019-05-22T05:45:41.972Z,18.51
2019-05-22T05:48:14.104Z,18.86
2019-05-22T05:51:11.148Z,18.24
2019-05-22T05:54:01.028Z,18.91
2019-05-22T05:56:33.416Z,18.48
2019-05-22T05:59:04.773Z,18.39
2019-05-22T06:01:38.951Z,18.78
2019-05-22T06:04:11.064Z,18.99
2019-05-22T06:07:21.773Z,18.49
2019-05-22T06:10:42.821Z,18.00
2019-05-22T06:13:12.748Z,18.15
2019-05-22T06:16:29.331Z,18.54
2019-05-22T06:18:59.327Z,18.68
2019-05-22T06:21:29.296Z,19.51
2019-05-22T06:24:29.900Z,19.35
2019-05-22T06:27:18.928Z,19.54
2019-05-22T06:29:59.345Z,18.18
2019-05-22T06:33:21.631Z,18.69
2019-05-22T06:35:51.319Z,19.40
2019-05-22T06:38:52.902Z,19.09
2019-05-22T06:41:29.118Z,19.20
2019-05-22T06:44:36.134Z,19.03
2019-05-22T06:47:09.063Z,19.73
2019-05-22T06:49:56.749Z,19.13
2019-05-22T06:52:26.525Z,19.79
2019-05-22T06:54:56.544Z,19.82
2019-05-22T06:57:32.005Z,19.86
2019-05-22T07:00:21.640Z,19.90
2019-05-22T07:02:51.014Z,19.27
2019-05-22T07:05:20.828Z,19.65
2019-05-22T07:07:50.495Z,19.72
2019-05-22T07:10:20.692Z,19.32
2019-05-22T07:12:51.008Z,18.88
2019-05-22T07:15:51.155Z,20.10
2019-05-22T07:18:22.553Z,19.96
2019-05-22T07:20:52.454Z,20.38
2019-05-22T07:23:30.347Z,20.40
2019-05-22T07:26:00.903Z,20.08
2019-05-22T07:28:31.952Z,20.35
2019-05-22T07:31:02.900Z,20.85
2019-05-22T07:33:32.897Z,20.18
2019-05-22T07:36:09.852Z,20.06
2019-05-22T07:38:37.754Z,19.91
2019-05-22T07:41:07.732Z,20.38
2019-05-22T07:43:41.209Z,20.10
2019-05-22T07:46:08.722Z,20.28
2019-05-22T07:48:38.488Z,19.36
2019-05-22T07:51:08.767Z,20.11
2019-05-22T07:53:38.080Z,20.24
2019-05-22T07:56:11.453Z,19.74
2019-05-22T07:58:42.013Z,19.83
2019-05-22T08:01:12.213Z,20.71
2019-05-22T08:03:43.636Z,20.86
2019-05-22T08:06:13.204Z,19.59
2019-05-22T08:08:44.498Z,19.45
2019-05-22T08:11:14.527Z,20.25
2019-05-22T08:13:45.291Z,20.80
2019-05-22T08:16:16.862Z,21.41
2019-05-22T08:18:46.573Z,21.24
2019-05-22T08:21:15.968Z,21.14
2019-05-22T08:23:45.546Z,21.31
2019-05-22T08:26:16.855Z,21.94
2019-05-22T08:28:46.328Z,22.33
2019-05-22T08:31:17.243Z,21.54
2019-05-22T08:33:46.735Z,21.84
2019-05-22T08:36:16.283Z,22.00
2019-05-22T08:38:45.766Z,21.50
2019-05-22T08:41:18.943Z,22.09
2019-05-22T08:44:13.959Z,22.49
2019-05-22T08:46:20.444Z,23.12
2019-05-22T08:48:50.093Z,23.51
2019-05-22T08:51:19.923Z,23.07
2019-05-22T08:53:49.685Z,22.81
2019-05-22T08:56:19.621Z,22.72
2019-05-22T08:58:48.955Z,21.71
2019-05-22T09:01:20.017Z,21.42
2019-05-22T09:03:49.379Z,22.82
2019-05-22T09:06:18.946Z,21.38
2019-05-22T09:08:51.504Z,21.35
2019-05-22T09:11:25.112Z,20.40
2019-05-22T09:13:52.052Z,21.47
2019-05-22T09:16:21.628Z,22.09
2019-05-22T09:18:52.458Z,20.54
2019-05-22T09:21:23.517Z,22.56
2019-05-22T09:23:55.829Z,21.57
2019-05-22T09:26:26.080Z,22.69
2019-05-22T09:28:55.616Z,21.77
2019-05-22T09:31:26.199Z,23.12
2019-05-22T09:34:00.219Z,22.70
2019-05-22T09:36:34.435Z,22.01
2019-05-22T09:39:05.648Z,22.98
2019-05-22T09:41:35.097Z,22.45
2019-05-22T09:44:04.745Z,22.46
2019-05-22T09:46:34.237Z,22.37
2019-05-22T09:49:04.981Z,23.15
2019-05-22T09:51:34.361Z,23.25
2019-05-22T09:54:04.765Z,22.60
2019-05-22T09:56:34.382Z,22.66
2019-05-22T09:59:05.104Z,23.83
2019-05-22T10:01:34.765Z,22.20
2019-05-22T10:04:04.694Z,23.67
2019-05-22T10:06:34.170Z,23.92
2019-05-22T10:09:04.308Z,22.72
2019-05-22T10:11:35.660Z,23.38
2019-05-22T10:14:06.444Z,23.55
2019-05-22T10:16:37.402Z,23.06
2019-05-22T10:19:06.978Z,24.29
2019-05-22T10:21:37.439Z,23.12
2019-05-22T10:24:06.910Z,24.42
2019-05-22T10:26:37.301Z,23.99
2019-05-22T10:29:08.253Z,22.82
2019-05-22T10:31:37.740Z,23.59
2019-05-22T10:34:08.363Z,24.62
2019-05-22T10:36:43.093Z,24.20
2019-05-22T10:39:10.664Z,23.36
2019-05-22T10:41:39.972Z,24.63
2019-05-22T10:44:09.292Z,23.36
2019-05-22T10:46:38.718Z,23.67
2019-05-22T10:49:08.100Z,24.54
2019-05-22T10:51:37.698Z,23.37
2019-05-22T10:54:07.078Z,24.02
2019-05-22T10:56:36.377Z,22.95
2019-05-22T10:59:06.991Z,24.35
2019-05-22T11:01:37.692Z,25.35
2019-05-22T11:04:08.123Z,25.36
2019-05-22T11:06:37.813Z,24.12
2019-05-22T11:09:09.765Z,24.90
2019-05-22T11:11:40.376Z,25.52
2019-05-22T11:14:11.296Z,24.14
2019-05-22T11:16:40.637Z,24.23
2019-05-22T11:19:10.370Z,24.63
2019-05-22T11:21:39.643Z,24.20
2019-05-22T11:24:09.793Z,24.20
2019-05-22T11:26:39.132Z,23.26
2019-05-22T11:29:09.350Z,24.97
2019-05-22T11:31:39.400Z,24.06
2019-05-22T11:34:08.901Z,23.70
2019-05-22T11:36:39.085Z,23.33
2019-05-22T11:39:14.003Z,23.95
2019-05-22T11:41:43.996Z,24.19
2019-05-22T11:44:14.333Z,24.29
2019-05-22T11:46:45.072Z,25.30
2019-05-22T11:49:14.372Z,24.98
2019-05-22T11:51:44.146Z,24.67
2019-05-22T11:54:13.554Z,24.04
2019-05-22T11:56:42.964Z,25.32
2019-05-22T11:59:13.808Z,24.40
2019-05-22T12:01:43.410Z,25.59
2019-05-22T12:04:13.591Z,25.08
2019-05-22T12:06:43.887Z,25.33
2019-05-22T12:09:16.697Z,24.24
2019-05-22T12:11:46.707Z,25.48
2019-05-22T12:14:18.497Z,26.16
2019-05-22T12:16:53.009Z,25.55
2019-05-22T12:19:22.601Z,25.39
2019-05-22T12:21:52.009Z,25.40
2019-05-22T12:24:27.906Z,25.88
2019-05-22T12:26:52.905Z,26.31
2019-05-22T12:29:22.863Z,25.92
2019-05-22T12:31:52.414Z,26.57
2019-05-22T12:34:21.784Z,25.94
2019-05-22T12:36:51.803Z,26.86
2019-05-22T12:39:24.149Z,25.91
2019-05-22T12:41:55.322Z,25.28
2019-05-22T12:44:25.440Z,26.23
2019-05-22T12:46:54.838Z,27.08
2019-05-22T12:49:26.061Z,26.56
2019-05-22T12:51:55.489Z,26.19
2019-05-22T12:54:24.800Z,26.41
2019-05-22T12:56:55.265Z,26.40
2019-05-22T12:59:27.359Z,26.30
2019-05-22T13:01:58.189Z,25.78
2019-05-22T13:04:29.273Z,26.57
2019-05-22T13:07:00.706Z,26.45
2019-05-22T13:09:31.133Z,27.18
2019-05-22T13:12:00.630Z,25.61
2019-05-22T13:14:30.440Z,26.61
2019-05-22T13:17:01.758Z,26.19
2019-05-22T13:19:33.712Z,25.99
2019-05-22T13:22:04.548Z,27.23
2019-05-22T13:24:35.363Z,26.63
2019-05-22T13:27:07.629Z,27.28
2019-05-22T13:29:37.156Z,27.94
2019-05-22T13:32:08.771Z,26.98
2019-05-22T13:34:39.952Z,26.93
2019-05-22T13:37:10.218Z,27.41
2019-05-22T13:39:39.971Z,27.18
2019-05-22T13:42:13.321Z,27.00
2019-05-22T13:44:42.771Z,26.95
2019-05-22T13:47:12.729Z,26.48
2019-05-22T13:49:42.940Z,26.40
2019-05-22T13:52:14.415Z,25.56
2019-05-22T13:54:47.724Z,25.22
2019-05-22T13:57:17.536Z,25.39
2019-05-22T13:59:47.222Z,25.79
2019-05-22T14:02:16.618Z,25.74
2019-05-22T14:04:46.050Z,26.76
2019-05-22T14:07:16.252Z,26.32
2019-05-22T14:09:46.032Z,24.33
2019-05-22T14:12:15.389Z,25.93
2019-05-22T14:14:45.448Z,25.66
2019-05-22T14:17:14.763Z,26.18
2019-05-22T14:19:44.106Z,26.26
2019-05-22T14:22:13.437Z,26.45
2019-05-22T14:24:42.773Z,26.08
2019-05-22T14:27:12.173Z,26.32
2019-05-22T14:29:41.728Z,26.97
2019-05-22T14:32:11.808Z,26.78
2019-05-22T14:34:41.573Z,25.57
2019-05-22T14:37:12.923Z,24.30
2019-05-22T14:39:42.773Z,25.59
2019-05-22T14:42:13.748Z,25.45
2019-05-22T14:44:43.140Z,25.93
2019-05-22T14:47:15.937Z,25.94
2019-05-22T14:49:43.672Z,26.24
2019-05-22T14:52:14.136Z,26.21
2019-05-22T14:54:43.465Z,26.35
2019-05-22T14:57:12.893Z,26.99
2019-05-22T14:59:42.148Z,27.22
2019-05-22T15:02:12.049Z,26.31
2019-05-22T15:04:42.139Z,26.93
2019-05-22T15:07:11.555Z,27.06
2019-05-22T15:09:40.936Z,27.29
2019-05-22T15:12:10.751Z,26.72
2019-05-22T15:14:40.037Z,25.85
2019-05-22T15:17:09.636Z,27.22
2019-05-22T15:19:38.978Z,27.38
2019-05-22T15:22:08.986Z,25.47
2019-05-22T15:24:38.408Z,25.34
2019-05-22T15:27:09.432Z,26.24
2019-05-22T15:29:38.851Z,25.66
2019-05-22T15:32:09.286Z,25.94
2019-05-22T15:34:39.919Z,24.51
2019-05-22T15:37:10.996Z,26.27
2019-05-22T15:39:40.803Z,26.50
2019-05-22T15:42:13.096Z,25.37
2019-05-22T15:44:42.889Z,27.05
2019-05-22T15:47:12.281Z,26.29
2019-05-22T15:49:44.890Z,26.40
2019-05-22T15:52:15.230Z,26.19
2019-05-22T15:54:46.317Z,25.42
2019-05-22T15:57:17.201Z,25.76
2019-05-22T15:59:47.661Z,24.76
2019-05-22T16:02:21.708Z,26.10
2019-05-22T16:04:48.694Z,25.73
2019-05-22T16:07:18.797Z,25.71
2019-05-22T16:09:50.431Z,26.44
2019-05-22T16:12:19.754Z,25.99
2019-05-22T16:14:51.427Z,26.40
2019-05-22T16:17:22.294Z,26.12
2019-05-22T16:19:53.018Z,25.96
2019-05-22T16:22:22.452Z,25.92
2019-05-22T16:24:53.374Z,25.72
2019-05-22T16:27:23.744Z,26.09
2019-05-22T16:29:55.172Z,25.30
2019-05-22T16:32:26.268Z,25.77
2019-05-22T16:34:56.064Z,25.37
2019-05-22T16:37:25.537Z,25.72
2019-05-22T16:39:54.895Z,25.28
2019-05-22T16:42:24.198Z,25.20
2019-05-22T16:44:53.628Z,25.24
2019-05-22T16:47:22.921Z,25.94
2019-05-22T16:49:53.898Z,25.31
2019-05-22T16:52:26.985Z,25.61
2019-05-22T16:54:59.781Z,26.34
2019-05-22T16:57:31.517Z,25.96
2019-05-22T17:00:01.469Z,25.99
2019-05-22T17:02:32.638Z,26.35
2019-05-22T17:05:02.528Z,25.17
2019-05-22T17:07:32.695Z,24.93
2019-05-22T17:10:03.587Z,25.06
2019-05-22T17:12:33.231Z,25.30
2019-05-22T17:15:02.716Z,25.57
2019-05-22T17:17:32.267Z,25.57
2019-05-22T17:20:01.755Z,25.72
2019-05-22T17:22:31.134Z,24.95
2019-05-22T17:25:00.452Z,25.71
2019-05-22T17:27:30.610Z,25.42
2019-05-22T17:30:00.614Z,24.89
2019-05-22T17:32:29.974Z,25.71
2019-05-22T17:35:00.463Z,25.30
2019-05-22T17:37:31.103Z,25.57
2019-05-22T17:40:04.245Z,26.09
2019-05-22T17:42:35.009Z,25.80
2019-05-22T17:45:04.800Z,26.11
2019-05-22T17:47:34.408Z,25.83
2019-05-22T17:50:04.353Z,26.24
2019-05-22T17:52:33.968Z,25.86
2019-05-22T17:55:05.617Z,25.95
2019-05-22T17:57:35.057Z,25.52
2019-05-22T18:00:07.258Z,25.51
2019-05-22T18:02:37.071Z,25.61
2019-05-22T18:05:07.880Z,25.64
2019-05-22T18:07:38.707Z,25.58
2019-05-22T18:10:09.330Z,25.45
2019-05-22T18:12:38.942Z,25.40
2019-05-22T18:15:10.138Z,25.56
2019-05-22T18:17:39.911Z,25.72
2019-05-22T18:20:11.379Z,24.23
2019-05-22T18:22:41.225Z,24.63
2019-05-22T18:25:11.263Z,24.84
2019-05-22T18:27:40.611Z,25.11
2019-05-22T18:30:11.143Z,25.08
2019-05-22T18:32:42.582Z,25.18
2019-05-22T18:35:13.536Z,24.60
2019-05-22T18:37:42.924Z,24.72
2019-05-22T18:40:13.124Z,24.89
2019-05-22T18:42:42.661Z,25.00
2019-05-22T18:45:34.439Z,24.73
2019-05-22T18:48:04.529Z,24.46
2019-05-22T18:50:34.716Z,24.61
2019-05-22T18:53:06.853Z,24.75
2019-05-22T18:55:36.178Z,24.73
2019-05-22T18:58:06.130Z,24.53
2019-05-22T19:00:35.878Z,24.17
2019-05-22T19:03:05.744Z,24.44
2019-05-22T19:05:35.612Z,24.18
2019-05-22T19:08:04.966Z,24.50
2019-05-22T19:10:34.420Z,24.16
2019-05-22T19:13:04.353Z,23.98
2019-05-22T19:15:33.809Z,24.19
2019-05-22T19:18:03.787Z,24.17
2019-05-22T19:20:33.163Z,24.11
2019-05-22T19:23:02.714Z,24.11
2019-05-22T19:25:32.270Z,23.76
2019-05-22T19:28:01.719Z,23.69
2019-05-22T19:30:31.304Z,23.61
2019-05-22T19:33:00.666Z,23.50
2019-05-22T19:35:30.039Z,23.49
2019-05-22T19:38:00.910Z,23.43
2019-05-22T19:40:30.922Z,23.11
2019-05-22T19:43:00.548Z,23.06
2019-05-22T19:45:31.068Z,23.10
2019-05-22T19:48:01.880Z,23.00
2019-05-22T19:50:31.280Z,23.06
2019-05-22T19:53:17.469Z,22.94
2019-05-22T19:55:35.434Z,22.91
2019-05-22T19:58:05.666Z,22.85
2019-05-22T20:00:35.919Z,22.48
2019-05-22T20:03:05.975Z,22.56
2019-05-22T20:05:36.615Z,22.56
2019-05-22T20:08:06.082Z,22.42
2019-05-22T20:10:35.773Z,22.48
2019-05-22T20:13:08.161Z,22.18
2019-05-22T20:15:38.725Z,21.97
2019-05-22T20:18:08.563Z,22.00
2019-05-22T20:20:38.567Z,22.18
2019-05-22T20:23:09.406Z,22.31
2019-05-22T20:25:39.161Z,22.14
2019-05-22T20:28:10.176Z,22.40
2019-05-22T20:30:51.187Z,22.29
2019-05-22T20:33:20.934Z,21.72
2019-05-22T20:35:50.387Z,21.23
2019-05-22T20:38:19.784Z,21.61
2019-05-22T20:40:49.349Z,21.66
2019-05-22T20:43:20.366Z,21.71
2019-05-22T20:45:50.776Z,21.61
2019-05-22T20:48:28.194Z,21.78
2019-05-22T20:50:59.717Z,21.68
2019-05-22T20:53:31.024Z,21.16
2019-05-22T20:56:01.037Z,21.10
2019-05-22T20:58:32.448Z,21.69
2019-05-22T21:01:03.431Z,21.17
2019-05-22T21:03:33.387Z,21.77
2019-05-22T21:06:07.805Z,21.67
2019-05-22T21:08:38.129Z,21.45
2019-05-22T21:11:09.655Z,22.02
2019-05-22T21:13:39.870Z,21.62
2019-05-22T21:16:09.489Z,21.76
2019-05-22T21:18:42.643Z,21.74
2019-05-22T21:21:13.786Z,21.52
2019-05-22T21:23:44.143Z,21.77
2019-05-22T21:26:15.146Z,21.66
2019-05-22T21:28:45.678Z,21.48
2019-05-22T21:31:17.052Z,21.54
2019-05-22T21:33:46.839Z,21.37
2019-05-22T21:36:18.931Z,21.44
2019-05-22T21:38:48.325Z,21.27
2019-05-22T21:41:21.935Z,21.13
2019-05-22T21:43:52.461Z,21.43
2019-05-22T21:46:22.356Z,21.51
2019-05-22T21:48:56.418Z,21.50
2019-05-22T21:51:26.343Z,20.64
2019-05-22T21:53:56.489Z,20.95
2019-05-22T21:56:26.066Z,21.20
2019-05-22T21:58:55.872Z,21.20
2019-05-22T22:01:39.089Z,21.24
2019-05-22T22:04:20.298Z,21.08
2019-05-22T22:06:51.237Z,21.16
2019-05-22T22:09:21.781Z,21.34
2019-05-22T22:11:52.813Z,21.15
2019-05-22T22:14:24.086Z,21.19
2019-05-22T22:16:53.509Z,21.18
2019-05-22T22:19:23.864Z,21.06
2019-05-22T22:21:53.139Z,21.03
2019-05-22T22:24:23.072Z,21.00
2019-05-22T22:26:53.133Z,20.93
2019-05-22T22:29:23.195Z,20.62
2019-05-22T22:31:54.174Z,20.61
2019-05-22T22:34:30.625Z,20.69
2019-05-22T22:37:00.690Z,20.56
2019-05-22T22:39:38.327Z,20.59
2019-05-22T22:42:10.892Z,20.25
2019-05-22T22:44:41.051Z,20.20
2019-05-22T22:47:15.949Z,20.05
2019-05-22T22:49:45.926Z,20.05
2019-05-22T22:52:16.176Z,19.96
2019-05-22T22:54:46.102Z,20.28
2019-05-22T22:57:15.841Z,19.93
2019-05-22T22:59:45.779Z,20.03
2019-05-22T23:02:18.238Z,20.04
2019-05-22T23:04:48.736Z,20.07
2019-05-22T23:07:19.632Z,19.69
2019-05-22T23:09:49.369Z,19.62
2019-05-22T23:12:19.628Z,19.58
2019-05-22T23:14:56.748Z,19.50
2019-05-22T23:17:26.143Z,19.58
2019-05-22T23:19:54.898Z,19.71
2019-05-22T23:22:28.628Z,19.36
2019-05-22T23:24:59.566Z,19.37
2019-05-22T23:27:31.428Z,19.25
2019-05-22T23:30:01.100Z,19.32
2019-05-22T23:32:30.992Z,19.31
2019-05-22T23:35:01.017Z,19.12
2019-05-22T23:37:30.462Z,19.06
2019-05-22T23:40:00.064Z,19.22
2019-05-22T23:42:35.030Z,19.23
2019-05-22T23:45:07.546Z,18.87
2019-05-22T23:47:45.277Z,18.91
2019-05-22T23:50:15.465Z,18.66
2019-05-22T23:52:44.860Z,18.83
2019-05-22T23:55:14.437Z,18.40
2019-05-22T23:57:43.791Z,18.62
